createdAt,value
2022-10-29T00:00:00.494Z,5.97
2022-10-29T00:02:27.244Z,6.77
2022-10-29T00:04:54.147Z,6.37
2022-10-29T00:07:20.823Z,7.00
2022-10-29T00:09:47.530Z,6.27
2022-10-29T00:12:14.195Z,6.67
2022-10-29T00:14:40.961Z,7.00
2022-10-29T00:17:07.614Z,6.90
2022-10-29T00:19:34.278Z,5.70
2022-10-29T00:22:00.953Z,6.00
2022-10-29T00:24:27.640Z,6.37
2022-10-29T00:26:54.387Z,7.30
2022-10-29T00:29:21.164Z,6.30
2022-10-29T00:31:50.915Z,6.77
2022-10-29T00:34:17.625Z,5.93
2022-10-29T00:36:44.288Z,6.47
2022-10-29T00:39:15.742Z,6.37
2022-10-29T00:41:42.961Z,6.47
2022-10-29T00:44:35.716Z,7.17
2022-10-29T00:47:21.054Z,5.10
2022-10-29T00:50:15.673Z,5.27
2022-10-29T00:52:46.035Z,7.10
2022-10-29T00:55:15.410Z,6.33
2022-10-29T00:57:50.045Z,5.23
2022-10-29T01:00:18.286Z,6.73
2022-10-29T01:02:45.855Z,6.73
2022-10-29T01:05:15.355Z,6.17
2022-10-29T01:07:42.387Z,6.10
2022-10-29T01:10:10.173Z,5.67
2022-10-29T01:12:42.980Z,5.27
2022-10-29T01:15:26.488Z,6.57
2022-10-29T01:18:06.803Z,7.57
2022-10-29T01:21:12.315Z,6.27
2022-10-29T01:24:08.137Z,7.50
2022-10-29T01:26:53.855Z,5.20
2022-10-29T01:29:45.236Z,6.93
2022-10-29T01:32:18.684Z,5.47
2022-10-29T01:35:00.547Z,5.07
2022-10-29T01:37:54.853Z,5.30
2022-10-29T01:40:55.940Z,5.93
2022-10-29T01:43:50.578Z,7.53
2022-10-29T01:46:40.316Z,5.23
2022-10-29T01:49:12.421Z,5.13
2022-10-29T01:51:39.737Z,6.60
2022-10-29T01:54:09.769Z,6.07
2022-10-29T01:56:36.587Z,7.27
2022-10-29T01:59:09.116Z,5.53
2022-10-29T02:01:52.088Z,5.13
2022-10-29T02:04:24.526Z,5.80
2022-10-29T02:06:58.354Z,8.90
2022-10-29T02:09:44.374Z,4.50
2022-10-29T02:12:17.982Z,6.13
2022-10-29T02:14:49.584Z,7.80
2022-10-29T02:17:16.272Z,5.70
2022-10-29T02:19:43.124Z,4.90
2022-10-29T02:22:09.914Z,4.80
2022-10-29T02:24:36.753Z,6.10
2022-10-29T02:27:03.536Z,5.40
2022-10-29T02:29:30.222Z,6.13
2022-10-29T02:31:56.883Z,5.53
2022-10-29T02:34:24.325Z,5.20
2022-10-29T02:36:51.063Z,5.87
2022-10-29T02:39:17.798Z,6.77
2022-10-29T02:41:44.572Z,5.70
2022-10-29T02:44:11.327Z,6.40
2022-10-29T02:46:39.851Z,5.97
2022-10-29T02:49:07.212Z,5.33
2022-10-29T02:51:34.272Z,5.83
2022-10-29T02:54:01.131Z,5.90
2022-10-29T02:56:27.921Z,5.23
2022-10-29T02:58:54.859Z,5.63
2022-10-29T03:01:21.646Z,5.03
2022-10-29T03:03:48.743Z,5.30
2022-10-29T03:06:16.781Z,6.77
2022-10-29T03:08:43.827Z,4.83
2022-10-29T03:11:11.006Z,4.70
2022-10-29T03:16:09.725Z,5.93
2022-10-29T03:18:36.657Z,5.77
2022-10-29T03:21:03.403Z,5.77
2022-10-29T03:23:30.092Z,4.57
2022-10-29T03:25:57.032Z,5.60
2022-10-29T03:28:27.879Z,6.33
2022-10-29T03:30:54.854Z,5.00
2022-10-29T03:33:21.706Z,5.00
2022-10-29T03:35:48.549Z,4.27
2022-10-29T03:38:15.304Z,4.70
2022-10-29T03:40:43.151Z,5.13
2022-10-29T03:43:09.836Z,4.80
2022-10-29T03:45:36.737Z,4.37
2022-10-29T03:48:04.920Z,5.27
2022-10-29T03:50:31.658Z,4.33
2022-10-29T03:52:58.694Z,4.40
2022-10-29T03:55:25.393Z,4.97
2022-10-29T03:57:52.101Z,5.37
2022-10-29T04:00:18.876Z,4.27
2022-10-29T04:02:45.692Z,4.10
2022-10-29T04:05:12.457Z,6.03
2022-10-29T04:07:39.155Z,5.37
2022-10-29T04:10:06.330Z,4.87
2022-10-29T04:12:33.081Z,4.37
2022-10-29T04:14:59.921Z,4.83
2022-10-29T04:17:26.688Z,4.83
2022-10-29T04:19:53.417Z,5.40
2022-10-29T04:30:42.181Z,5.07
2022-10-29T04:33:08.859Z,5.63
2022-10-29T04:35:35.667Z,4.17
2022-10-29T04:38:08.853Z,4.10
2022-10-29T04:40:35.594Z,4.43
2022-10-29T04:43:02.341Z,4.43
2022-10-29T04:45:29.165Z,4.10
2022-10-29T04:48:02.367Z,5.27
2022-10-29T04:50:29.889Z,4.33
2022-10-29T04:53:00.385Z,4.00
2022-10-29T04:55:28.236Z,6.77
2022-10-29T04:57:55.686Z,4.83
2022-10-29T05:00:23.056Z,4.73
2022-10-29T05:02:50.902Z,4.07
2022-10-29T05:05:20.082Z,4.50
2022-10-29T05:07:47.240Z,4.83
2022-10-29T05:10:14.409Z,5.27
2022-10-29T05:12:41.316Z,5.37
2022-10-29T05:15:08.230Z,6.27
2022-10-29T05:17:40.964Z,5.20
2022-10-29T05:20:08.230Z,7.17
2022-10-29T05:22:34.967Z,4.57
2022-10-29T05:25:01.764Z,4.10
2022-10-29T05:27:28.604Z,4.33
2022-10-29T05:29:55.342Z,5.30
2022-10-29T05:32:22.181Z,4.33
2022-10-29T05:34:49.140Z,4.37
2022-10-29T05:37:15.896Z,7.17
2022-10-29T05:39:42.627Z,3.60
2022-10-29T05:42:09.488Z,6.67
2022-10-29T05:44:36.235Z,4.37
2022-10-29T05:47:03.143Z,6.50
2022-10-29T05:49:29.880Z,5.73
2022-10-29T05:51:56.642Z,5.57
2022-10-29T05:54:23.488Z,5.57
2022-10-29T05:56:50.273Z,4.00
2022-10-29T05:59:17.051Z,4.87
2022-10-29T06:01:43.912Z,5.37
2022-10-29T06:04:10.808Z,4.60
2022-10-29T06:06:38.836Z,4.83
2022-10-29T06:09:05.851Z,5.50
2022-10-29T06:11:32.530Z,6.17
2022-10-29T06:13:59.328Z,6.67
2022-10-29T06:16:26.058Z,4.33
2022-10-29T06:18:52.917Z,3.87
2022-10-29T06:21:19.682Z,4.40
2022-10-29T06:23:46.463Z,4.00
2022-10-29T06:26:13.333Z,5.57
2022-10-29T06:28:40.074Z,5.37
2022-10-29T06:31:06.830Z,3.77
2022-10-29T06:33:33.693Z,4.63
2022-10-29T06:36:01.258Z,6.07
2022-10-29T06:38:28.260Z,4.70
2022-10-29T06:40:55.016Z,4.47
2022-10-29T06:43:21.852Z,5.20
2022-10-29T06:45:50.153Z,4.40
2022-10-29T06:48:21.683Z,4.63
2022-10-29T06:50:50.067Z,4.50
2022-10-29T06:53:16.849Z,4.00
2022-10-29T06:55:43.751Z,4.03
2022-10-29T06:58:18.183Z,4.83
2022-10-29T07:00:45.903Z,5.17
2022-10-29T07:03:14.021Z,5.43
2022-10-29T07:05:40.813Z,4.80
2022-10-29T07:08:07.726Z,5.33
2022-10-29T07:10:35.015Z,5.40
2022-10-29T07:13:02.331Z,5.97
2022-10-29T07:15:30.941Z,5.37
2022-10-29T07:18:02.111Z,6.83
2022-10-29T07:20:30.999Z,6.57
2022-10-29T07:22:57.856Z,6.07
2022-10-29T07:25:25.052Z,5.97
2022-10-29T07:27:51.976Z,7.57
2022-10-29T07:30:19.030Z,4.60
2022-10-29T07:32:45.845Z,4.47
2022-10-29T07:35:12.659Z,5.33
2022-10-29T07:50:47.289Z,4.87
2022-10-29T07:53:14.255Z,5.10
2022-10-29T07:55:41.287Z,4.90
2022-10-29T07:58:11.303Z,4.90
2022-10-29T08:00:40.220Z,4.67
2022-10-29T08:03:08.001Z,4.70
2022-10-29T08:05:35.218Z,4.53
2022-10-29T08:08:01.987Z,4.37
2022-10-29T08:10:30.502Z,5.20
2022-10-29T08:12:59.803Z,6.37
2022-10-29T08:15:28.358Z,4.57
2022-10-29T08:17:55.233Z,5.03
2022-10-29T08:20:23.351Z,5.57
2022-10-29T08:22:50.169Z,5.70
2022-10-29T08:25:18.003Z,4.77
2022-10-29T08:27:45.034Z,6.47
2022-10-29T08:30:13.720Z,6.97
2022-10-29T08:32:46.772Z,5.77
2022-10-29T08:35:14.361Z,4.90
2022-10-29T08:37:45.308Z,4.73
2022-10-29T08:40:27.381Z,5.30
2022-10-29T08:43:28.369Z,6.50
2022-10-29T08:45:56.238Z,6.17
2022-10-29T08:48:26.397Z,5.77
2022-10-29T08:51:01.958Z,6.93
2022-10-29T08:53:36.207Z,8.70
2022-10-29T08:56:11.035Z,7.10
2022-10-29T08:58:54.380Z,5.20
2022-10-29T09:01:22.678Z,7.63
2022-10-29T09:03:50.743Z,7.37
2022-10-29T09:06:20.149Z,9.27
2022-10-29T09:09:01.038Z,7.83
2022-10-29T09:11:42.870Z,6.77
2022-10-29T09:14:34.031Z,5.70
2022-10-29T09:17:30.531Z,7.17
2022-10-29T09:20:30.847Z,9.63
2022-10-29T09:23:06.609Z,6.40
2022-10-29T09:25:41.534Z,8.03
2022-10-29T09:28:13.614Z,6.57
2022-10-29T09:30:49.710Z,7.47
2022-10-29T09:33:19.390Z,8.50
2022-10-29T09:35:53.939Z,5.70
2022-10-29T09:38:33.138Z,6.77
2022-10-29T09:41:01.937Z,7.57
2022-10-29T09:43:56.888Z,6.37
2022-10-29T09:46:37.396Z,9.17
2022-10-29T09:49:29.990Z,8.10
2022-10-29T09:52:02.448Z,8.23
2022-10-29T09:54:30.819Z,9.07
2022-10-29T09:56:58.894Z,7.13
2022-10-29T09:59:33.476Z,8.87
2022-10-29T10:02:00.330Z,7.87
2022-10-29T10:04:32.526Z,7.07
2022-10-29T10:07:10.909Z,8.17
2022-10-29T10:09:58.124Z,9.90
2022-10-29T10:12:30.081Z,8.10
2022-10-29T10:15:19.461Z,7.03
2022-10-29T10:18:15.982Z,9.40
2022-10-29T10:20:45.666Z,9.27
2022-10-29T10:23:30.320Z,7.77
2022-10-29T10:26:02.061Z,8.17
2022-10-29T10:28:35.907Z,9.23
2022-10-29T10:31:09.633Z,7.43
2022-10-29T10:33:37.637Z,8.50
2022-10-29T10:36:09.282Z,8.13
2022-10-29T10:38:45.044Z,7.13
2022-10-29T10:41:13.174Z,9.30
2022-10-29T10:43:45.759Z,9.27
2022-10-29T10:46:25.000Z,7.37
2022-10-29T10:49:03.902Z,8.50
2022-10-29T10:51:36.005Z,7.27
2022-10-29T10:54:22.422Z,5.17
2022-10-29T10:56:58.858Z,7.67
2022-10-29T10:59:43.331Z,9.27
2022-10-29T11:02:29.736Z,8.40
2022-10-29T11:05:03.647Z,7.63
2022-10-29T11:07:36.365Z,6.50
2022-10-29T11:10:04.846Z,6.67
2022-10-29T11:12:37.031Z,6.63
2022-10-29T11:15:16.820Z,7.77
2022-10-29T11:17:53.868Z,10.57
2022-10-29T11:20:22.991Z,8.43
2022-10-29T11:23:07.898Z,7.17
2022-10-29T11:25:43.359Z,8.30
2022-10-29T11:28:58.196Z,7.70
2022-10-29T11:31:32.126Z,7.83
2022-10-29T11:34:08.360Z,5.83
2022-10-29T11:36:40.666Z,8.63
2022-10-29T11:39:36.058Z,8.23
2022-10-29T11:42:02.806Z,8.37
2022-10-29T11:44:32.777Z,5.57
2022-10-29T11:47:05.667Z,6.70
2022-10-29T11:49:53.265Z,6.03
2022-10-29T11:52:38.612Z,8.47
2022-10-29T11:55:14.629Z,5.63
2022-10-29T11:57:58.647Z,7.53
2022-10-29T12:00:27.594Z,6.20
2022-10-29T12:03:15.869Z,6.90
2022-10-29T12:06:13.428Z,5.13
2022-10-29T12:08:53.991Z,5.47
2022-10-29T12:11:40.389Z,8.50
2022-10-29T12:14:21.547Z,7.80
2022-10-29T12:16:50.166Z,6.67
2022-10-29T12:19:29.580Z,7.13
2022-10-29T12:22:07.598Z,6.87
2022-10-29T12:24:34.311Z,9.30
2022-10-29T12:27:01.115Z,7.57
2022-10-29T12:29:50.100Z,5.70
2022-10-29T12:32:33.920Z,8.50
2022-10-29T12:35:19.400Z,5.57
2022-10-29T12:38:00.508Z,5.73
2022-10-29T12:40:33.527Z,7.67
2022-10-29T12:43:04.455Z,6.77
2022-10-29T12:46:06.530Z,6.70
2022-10-29T12:48:57.715Z,7.07
2022-10-29T12:51:49.619Z,9.57
2022-10-29T12:54:26.938Z,6.93
2022-10-29T12:56:56.925Z,5.90
2022-10-29T12:59:23.627Z,6.33
2022-10-29T13:02:11.674Z,9.80
2022-10-29T13:04:38.652Z,7.40
2022-10-29T13:07:18.473Z,6.77
2022-10-29T13:09:48.326Z,7.97
2022-10-29T13:12:55.664Z,6.13
2022-10-29T13:15:24.205Z,6.40
2022-10-29T13:17:52.657Z,6.20
2022-10-29T13:20:29.757Z,8.13
2022-10-29T13:22:58.759Z,6.93
2022-10-29T13:25:28.539Z,10.23
2022-10-29T13:27:55.623Z,8.27
2022-10-29T13:30:27.380Z,9.13
2022-10-29T13:32:55.387Z,6.53
2022-10-29T13:35:22.353Z,7.43
2022-10-29T13:37:53.734Z,6.87
2022-10-29T13:40:23.606Z,6.10
2022-10-29T13:42:58.425Z,6.70
2022-10-29T13:45:25.555Z,5.17
2022-10-29T13:47:52.365Z,7.77
2022-10-29T13:50:19.820Z,7.53
2022-10-29T13:52:51.669Z,7.30
2022-10-29T13:55:20.016Z,4.80
2022-10-29T13:57:59.761Z,6.50
2022-10-29T14:00:27.777Z,7.63
2022-10-29T14:03:04.519Z,8.20
2022-10-29T14:05:46.273Z,5.57
2022-10-29T14:08:15.815Z,7.00
2022-10-29T14:10:43.911Z,7.37
2022-10-29T14:13:23.524Z,7.93
2022-10-29T14:16:06.749Z,6.10
2022-10-29T14:18:38.944Z,7.93
2022-10-29T14:21:22.756Z,6.83
2022-10-29T14:23:58.780Z,9.07
2022-10-29T14:26:26.216Z,8.97
2022-10-29T14:28:53.353Z,5.50
2022-10-29T14:31:22.905Z,5.07
2022-10-29T14:33:59.938Z,8.90
2022-10-29T14:36:36.509Z,6.93
2022-10-29T14:39:28.715Z,6.13
2022-10-29T14:42:04.698Z,8.57
2022-10-29T14:44:32.796Z,6.60
2022-10-29T14:47:05.608Z,7.20
2022-10-29T14:49:34.496Z,9.37
2022-10-29T14:52:03.825Z,9.40
2022-10-29T14:54:40.082Z,8.47
2022-10-29T14:57:13.777Z,6.57
2022-10-29T14:59:47.984Z,6.10
2022-10-29T15:02:36.768Z,7.00
2022-10-29T15:05:07.043Z,6.87
2022-10-29T15:07:35.992Z,7.80
2022-10-29T15:10:15.931Z,6.67
2022-10-29T15:12:42.641Z,8.27
2022-10-29T15:15:30.764Z,7.53
2022-10-29T15:17:59.207Z,7.30
2022-10-29T15:20:41.306Z,6.80
2022-10-29T15:23:27.801Z,9.20
2022-10-29T15:26:02.135Z,7.27
2022-10-29T15:28:30.990Z,7.63
2022-10-29T15:31:01.506Z,8.17
2022-10-29T15:33:29.553Z,6.73
2022-10-29T15:35:59.498Z,7.40
2022-10-29T15:38:34.879Z,9.30
2022-10-29T15:41:20.005Z,8.97
2022-10-29T15:43:55.379Z,8.50
2022-10-29T15:46:27.831Z,6.23
2022-10-29T15:48:54.847Z,8.07
2022-10-29T15:51:26.916Z,6.47
2022-10-29T15:53:56.099Z,6.77
2022-10-29T15:56:23.583Z,7.17
2022-10-29T15:58:50.524Z,8.37
2022-10-29T16:01:17.465Z,6.87
2022-10-29T16:03:45.017Z,6.27
2022-10-29T16:06:12.461Z,5.33
2022-10-29T16:08:46.303Z,6.77
2022-10-29T16:11:15.623Z,6.97
2022-10-29T16:13:42.691Z,8.07
2022-10-29T16:16:14.217Z,5.77
2022-10-29T16:18:41.087Z,7.93
2022-10-29T16:21:07.798Z,7.60
2022-10-29T16:23:37.746Z,12.17
2022-10-29T16:26:04.907Z,15.37
2022-10-29T16:28:31.633Z,14.47
2022-10-29T16:30:59.461Z,16.47
2022-10-29T16:33:26.555Z,11.60
2022-10-29T16:35:53.246Z,11.27
2022-10-29T16:38:20.101Z,10.60
2022-10-29T16:40:46.897Z,11.80
2022-10-29T16:43:13.709Z,13.00
2022-10-29T16:45:40.493Z,13.33
2022-10-29T16:48:07.288Z,11.87
2022-10-29T16:50:34.872Z,11.13
2022-10-29T16:53:10.130Z,11.73
2022-10-29T16:55:38.789Z,12.07
2022-10-29T16:58:13.353Z,12.20
2022-10-29T17:00:40.231Z,15.83
2022-10-29T17:03:11.489Z,13.93
2022-10-29T17:05:41.128Z,14.60
2022-10-29T17:08:08.046Z,12.47
2022-10-29T17:10:35.152Z,12.40
2022-10-29T17:13:02.395Z,11.97
2022-10-29T17:15:29.761Z,15.37
2022-10-29T17:17:56.929Z,13.50
2022-10-29T17:20:23.949Z,11.47
2022-10-29T17:22:52.445Z,11.47
2022-10-29T17:25:19.233Z,12.50
2022-10-29T17:27:45.928Z,14.87
2022-10-29T17:30:12.760Z,13.73
2022-10-29T17:32:39.547Z,12.63
2022-10-29T17:35:06.619Z,12.77
2022-10-29T17:37:33.511Z,13.43
2022-10-29T17:40:03.236Z,14.80
2022-10-29T17:42:34.974Z,13.53
2022-10-29T17:45:03.566Z,14.30
2022-10-29T17:47:30.995Z,14.03
2022-10-29T17:49:57.859Z,14.87
2022-10-29T17:52:24.621Z,14.07
2022-10-29T17:54:51.377Z,12.93
2022-10-29T17:57:18.165Z,14.83
2022-10-29T17:59:44.849Z,13.37
2022-10-29T18:02:11.919Z,13.60
2022-10-29T18:04:38.893Z,13.87
2022-10-29T18:07:05.598Z,15.30
2022-10-29T18:09:32.406Z,14.00
2022-10-29T18:11:59.092Z,16.67
2022-10-29T18:14:25.786Z,14.70
2022-10-29T18:16:52.585Z,15.63
2022-10-29T18:19:19.345Z,13.03
2022-10-29T18:21:46.102Z,15.13
2022-10-29T18:24:12.922Z,12.77
2022-10-29T18:26:39.719Z,14.23
2022-10-29T18:29:08.644Z,13.03
2022-10-29T18:31:36.148Z,14.20
2022-10-29T18:34:06.037Z,11.80
2022-10-29T18:36:35.623Z,14.30
2022-10-29T18:39:04.003Z,13.90
2022-10-29T18:41:31.237Z,13.67
2022-10-29T18:43:58.808Z,13.60
2022-10-29T18:46:25.647Z,13.53
2022-10-29T18:48:53.516Z,12.30
2022-10-29T18:51:24.451Z,12.87
2022-10-29T18:53:52.541Z,12.90
2022-10-29T18:56:21.263Z,13.13
2022-10-29T18:58:48.689Z,14.30
2022-10-29T19:01:19.615Z,12.23
2022-10-29T19:03:55.468Z,14.20
2022-10-29T19:06:23.419Z,12.77
2022-10-29T19:08:50.305Z,12.83
2022-10-29T19:11:22.734Z,14.67
2022-10-29T19:13:53.597Z,13.90
2022-10-29T19:16:20.565Z,14.23
2022-10-29T19:18:47.652Z,11.93
2022-10-29T19:21:16.516Z,15.27
2022-10-29T19:23:43.971Z,11.73
2022-10-29T19:26:15.747Z,11.63
2022-10-29T19:28:43.400Z,14.20
2022-10-29T19:31:12.628Z,12.03
2022-10-29T19:33:39.940Z,11.80
2022-10-29T19:36:08.874Z,10.97
2022-10-29T19:38:41.977Z,13.87
2022-10-29T19:41:08.671Z,11.83
2022-10-29T19:43:35.414Z,14.93
2022-10-29T19:51:27.733Z,11.97
2022-10-29T19:54:07.666Z,12.33
2022-10-29T19:56:35.167Z,13.30
2022-10-29T19:59:04.333Z,13.93
2022-10-29T20:01:31.427Z,14.23
2022-10-29T20:03:58.479Z,12.97
2022-10-29T20:06:25.942Z,14.47
2022-10-29T20:08:52.805Z,13.30
2022-10-29T20:11:19.997Z,13.53
2022-10-29T20:13:47.134Z,17.13
2022-10-29T20:16:17.039Z,12.27
2022-10-29T20:18:44.624Z,13.27
2022-10-29T20:21:12.310Z,14.83
2022-10-29T20:23:39.097Z,14.33
2022-10-29T20:26:06.602Z,14.97
2022-10-29T20:28:33.657Z,13.17
2022-10-29T20:34:42.226Z,17.03
2022-10-29T20:37:08.953Z,16.27
2022-10-29T20:39:35.587Z,14.33
2022-10-29T20:42:04.486Z,14.20
2022-10-29T20:44:57.985Z,14.70
2022-10-29T20:47:24.879Z,14.70
2022-10-29T20:49:54.348Z,16.83
2022-10-29T20:52:21.165Z,14.10
2022-10-29T20:54:47.905Z,16.37
2022-10-29T20:57:14.645Z,17.53
2022-10-29T20:59:46.592Z,17.03
2022-10-29T21:02:13.451Z,16.20
2022-10-29T21:04:40.194Z,16.47
2022-10-29T21:07:07.799Z,18.07
2022-10-29T21:09:34.643Z,18.57
2022-10-29T21:12:01.495Z,17.80
2022-10-29T21:14:29.586Z,15.47
2022-10-29T21:16:56.549Z,15.97
2022-10-29T21:19:24.146Z,16.13
2022-10-29T21:21:50.951Z,16.03
2022-10-29T21:24:18.227Z,15.70
2022-10-29T21:26:44.914Z,16.80
2022-10-29T21:29:11.566Z,15.47
2022-10-29T21:31:38.183Z,18.97
2022-10-29T21:34:05.127Z,17.30
2022-10-29T21:36:31.851Z,15.83
2022-10-29T21:38:58.809Z,14.83
2022-10-29T21:41:25.565Z,16.67
2022-10-29T21:43:55.019Z,14.37
2022-10-29T21:46:21.783Z,16.10
2022-10-29T21:48:48.581Z,14.60
2022-10-29T21:51:16.354Z,16.03
2022-10-29T21:53:46.426Z,15.33
2022-10-29T21:56:26.568Z,16.73
2022-10-29T21:58:59.300Z,16.87
2022-10-29T22:01:26.169Z,13.97
2022-10-29T22:03:56.383Z,13.97
2022-10-29T22:06:25.993Z,12.60
2022-10-29T22:09:02.712Z,13.83
2022-10-29T22:11:29.572Z,13.33
2022-10-29T22:13:56.461Z,14.50
2022-10-29T22:16:23.658Z,12.90
2022-10-29T22:25:17.297Z,15.13
2022-10-29T22:27:44.070Z,14.70
2022-10-29T22:30:11.449Z,14.47
2022-10-29T22:32:38.229Z,12.90
2022-10-29T22:35:05.269Z,15.70
2022-10-29T22:37:32.054Z,12.17
2022-10-29T22:39:58.953Z,13.80
2022-10-29T22:42:25.715Z,14.37
2022-10-29T22:44:52.423Z,13.10
2022-10-29T22:47:19.154Z,12.70
2022-10-29T22:49:46.169Z,11.60
2022-10-29T22:52:12.956Z,14.13
2022-10-29T22:54:39.661Z,15.83
2022-10-29T22:57:06.392Z,14.67
2022-10-29T22:59:33.098Z,12.70
2022-10-29T23:01:59.974Z,12.87
2022-10-29T23:04:26.897Z,13.67
2022-10-29T23:06:55.723Z,13.33
2022-10-29T23:09:25.960Z,12.33
2022-10-29T23:11:52.758Z,12.13
2022-10-29T23:14:19.460Z,12.77
2022-10-29T23:16:46.138Z,13.77
2022-10-29T23:19:12.883Z,12.50
2022-10-29T23:21:39.587Z,14.07
2022-10-29T23:24:06.604Z,12.63
2022-10-29T23:26:33.364Z,13.33
2022-10-29T23:29:00.124Z,13.63
2022-10-29T23:31:28.077Z,14.10
2022-10-29T23:33:56.305Z,13.50
2022-10-29T23:36:24.187Z,12.13
2022-10-29T23:39:01.191Z,13.83
2022-10-29T23:41:29.144Z,14.67
2022-10-29T23:43:55.985Z,15.63
2022-10-29T23:46:23.157Z,13.13
2022-10-29T23:48:50.072Z,12.97
2022-10-29T23:51:16.768Z,12.13
2022-10-29T23:53:43.742Z,12.27
2022-10-29T23:56:10.549Z,12.93
2022-10-29T23:58:37.387Z,14.87
